createdAt,value
2023-03-24T16:26:48.187Z,1.50
2023-03-24T16:31:48.233Z,1.40
2023-03-24T16:36:47.986Z,1.20
2023-03-24T16:41:47.921Z,1.10
2023-03-24T16:46:47.873Z,1.30
2023-03-24T16:51:47.812Z,1.00
2023-03-24T16:56:47.770Z,1.20
2023-03-24T17:01:47.718Z,1.00
2023-03-24T17:06:47.581Z,0.80
2023-03-24T17:11:47.514Z,0.90
2023-03-24T17:16:47.450Z,1.00
2023-03-24T17:21:47.382Z,1.00
2023-03-24T17:26:47.317Z,1.20
2023-03-24T17:31:47.305Z,1.00
2023-03-24T17:36:47.182Z,1.00
2023-03-24T17:41:47.150Z,0.80
2023-03-24T17:46:47.096Z,1.00
2023-03-24T17:51:46.980Z,0.80
2023-03-24T17:56:46.928Z,1.00
2023-03-24T18:01:46.837Z,1.00
2023-03-24T18:06:46.775Z,0.80
2023-03-24T18:11:47.783Z,0.90
2023-03-24T18:16:46.660Z,1.20
2023-03-24T18:21:46.571Z,1.00
2023-03-24T18:26:47.370Z,1.30
2023-03-24T18:31:46.459Z,1.00
2023-03-24T18:36:46.369Z,1.10
2023-03-24T18:41:46.303Z,1.20
2023-03-24T18:46:46.237Z,1.20
2023-03-24T18:51:46.177Z,1.40
2023-03-24T18:56:46.185Z,1.60
2023-03-24T19:01:46.359Z,1.30
2023-03-24T19:06:46.116Z,1.50
2023-03-24T19:11:46.033Z,1.30
2023-03-24T19:16:45.853Z,2.10
2023-03-24T19:21:45.795Z,2.20
2023-03-24T19:26:45.761Z,2.30
2023-03-24T19:31:45.641Z,1.70
2023-03-24T19:36:47.666Z,1.50
2023-03-24T19:41:45.576Z,1.50
2023-03-24T19:46:45.510Z,1.60
2023-03-24T19:51:45.376Z,1.80
2023-03-24T19:56:45.327Z,1.80
2023-03-24T20:01:45.279Z,1.70
2023-03-24T20:06:45.189Z,2.00
2023-03-24T20:11:45.155Z,2.10
2023-03-24T20:16:45.088Z,2.40
2023-03-24T20:21:44.993Z,1.90
2023-03-24T20:26:46.506Z,1.90
2023-03-24T20:31:44.917Z,1.50
2023-03-24T20:36:44.784Z,1.40
2023-03-24T20:41:44.710Z,1.50
2023-03-24T20:46:45.981Z,1.40
2023-03-24T20:51:44.589Z,1.50
2023-03-24T20:56:44.570Z,1.20
2023-03-24T21:01:44.452Z,1.40
2023-03-24T21:06:44.390Z,1.30
2023-03-24T21:11:44.307Z,1.30
2023-03-24T21:16:44.296Z,1.20
2023-03-24T21:21:44.189Z,1.40
2023-03-24T21:26:44.116Z,1.20
2023-03-24T21:31:44.049Z,1.30
2023-03-24T21:36:43.984Z,1.30
2023-03-24T21:41:43.911Z,1.10
2023-03-24T21:46:43.852Z,1.20
2023-03-24T21:51:43.821Z,1.50
2023-03-24T21:56:43.765Z,1.40
2023-03-24T22:01:43.681Z,1.30
2023-03-24T22:06:43.583Z,1.00
2023-03-24T22:11:43.513Z,1.40
2023-03-24T22:16:43.513Z,1.20
2023-03-24T22:21:43.386Z,1.20
2023-03-24T22:26:43.319Z,1.00
2023-03-24T22:31:43.259Z,1.00
2023-03-24T22:36:43.192Z,1.40
2023-03-24T22:41:43.157Z,1.10
2023-03-24T22:46:43.147Z,1.40
2023-03-24T22:51:43.054Z,1.30
2023-03-24T22:56:42.990Z,1.00
2023-03-24T23:01:42.951Z,1.10
2023-03-24T23:06:42.831Z,1.40
2023-03-24T23:11:42.761Z,1.10
2023-03-24T23:16:42.763Z,1.00
2023-03-24T23:21:42.635Z,1.30
2023-03-24T23:26:42.565Z,1.10
2023-03-24T23:31:42.526Z,1.70
2023-03-24T23:36:42.420Z,1.20
2023-03-24T23:41:42.357Z,1.10
2023-03-24T23:46:42.298Z,1.40
2023-03-24T23:51:42.223Z,1.10
2023-03-24T23:56:42.214Z,1.30
